Time;durP1;ratioP1;P1;durP2;ratioP2;P2;SDS_P1;SDS_P2;PMS_P1;PMS_P2;Temp;Humidity;BMP_temperature;BMP_pressure;BME280_temperature;BME280_humidity;BME280_pressure;Samples;Min_cycle;Max_cycle;Signal;HPM_P1;HPM_P2
2023/07/07 00:00:34;;;;;;;2.60;2.40;;;20.00;60.70;19.20;96776.00;;;;4964822;28;20235;-81
2023/07/07 00:03:01;;;;;;;2.70;2.50;;;20.00;60.80;19.20;96776.00;;;;4976093;28;20231;-81
2023/07/07 00:05:33;;;;;;;2.77;2.57;;;20.00;61.00;19.10;96776.00;;;;4967835;28;20220;-80
2023/07/07 00:08:00;;;;;;;4.47;2.57;;;20.00;61.00;19.10;96776.00;;;;4962067;29;20212;-80
2023/07/07 00:10:28;;;;;;;3.10;2.60;;;19.90;61.10;19.10;96775.00;;;;4966723;28;20215;-81
2023/07/07 00:12:58;;;;;;;2.70;2.10;;;19.90;61.20;19.10;96779.00;;;;4972114;28;20235;-81
2023/07/07 00:15:26;;;;;;;2.60;2.40;;;19.90;61.30;19.00;96780.00;;;;4971760;28;20978;-80
2023/07/07 00:17:54;;;;;;;2.30;2.10;;;19.80;61.20;19.00;96774.00;;;;4970197;28;20211;-81
2023/07/07 00:20:21;;;;;;;2.80;2.40;;;19.80;61.30;19.00;96781.00;;;;4980093;28;20214;-80
2023/07/07 00:22:50;;;;;;;2.43;2.23;;;19.80;61.30;19.00;96775.00;;;;4964355;28;21463;-79
2023/07/07 00:25:18;;;;;;;4.37;2.30;;;19.80;61.50;19.00;96779.00;;;;4965622;28;20760;-81
2023/07/07 00:27:45;;;;;;;2.47;2.27;;;19.80;61.60;18.90;96769.00;;;;4968768;28;20200;-81
2023/07/07 00:30:14;;;;;;;2.37;2.17;;;19.70;61.60;18.90;96775.00;;;;4961828;28;20729;-81
2023/07/07 00:32:42;;;;;;;2.47;2.27;;;19.70;61.60;18.90;96775.00;;;;4970440;28;20980;-81
2023/07/07 00:35:10;;;;;;;2.60;2.40;;;19.70;61.80;18.90;96781.00;;;;4972669;28;20200;-80
2023/07/07 00:37:38;;;;;;;3.30;2.67;;;19.70;61.90;18.80;96780.00;;;;4962446;28;20231;-81
2023/07/07 00:40:07;;;;;;;2.67;2.40;;;19.70;62.00;18.80;96784.00;;;;4975368;28;20282;-81
2023/07/07 00:42:35;;;;;;;3.83;2.50;;;19.60;62.00;18.80;96781.00;;;;4971667;28;20210;-80
2023/07/07 00:45:18;;;;;;;3.07;2.47;;;19.60;62.10;18.80;96780.00;;;;4958339;28;20199;-80
2023/07/07 00:47:56;;;;;;;3.27;2.50;;;19.60;62.20;18.80;96780.00;;;;4963354;28;20199;-80
2023/07/07 00:50:28;;;;;;;2.83;2.40;;;19.60;62.20;18.70;96793.00;;;;4963932;28;20200;-80
2023/07/07 00:52:57;;;;;;;2.80;2.53;;;19.60;62.20;18.70;96788.00;;;;4959935;28;20233;-80
2023/07/07 00:55:32;;;;;;;2.40;2.20;;;19.50;62.90;18.60;96785.00;;;;4975912;28;20219;-80
2023/07/07 00:58:06;;;;;;;3.03;2.40;;;19.50;62.30;18.60;96791.00;;;;4974102;28;20216;-80
2023/07/07 01:00:39;;;;;;;4.40;2.50;;;19.50;62.30;18.60;96785.00;;;;4953428;28;20199;-80
2023/07/07 01:03:19;;;;;;;2.70;2.50;;;19.50;62.40;18.60;96790.00;;;;4966992;28;20646;-80
2023/07/07 01:05:48;;;;;;;3.70;2.70;;;19.40;62.40;18.60;96794.00;;;;4961480;28;20274;-80
2023/07/07 01:08:16;;;;;;;2.73;2.53;;;19.40;62.60;18.50;96794.00;;;;4968931;28;20226;-79
2023/07/07 01:10:44;;;;;;;3.60;3.20;;;19.40;62.60;18.50;96787.00;;;;4976182;28;20203;-81
2023/07/07 01:13:12;;;;;;;2.53;2.30;;;19.40;62.80;18.40;96789.00;;;;4983266;28;20368;-80
2023/07/07 01:15:53;;;;;;;2.57;2.37;;;19.30;62.90;18.40;96787.00;;;;4969858;28;20247;-81
2023/07/07 01:18:36;;;;;;;2.57;2.37;;;19.30;63.00;18.40;96789.00;;;;4979523;28;20187;-81
2023/07/07 01:21:15;;;;;;;3.07;2.87;;;19.30;63.20;18.40;96787.00;;;;4985017;28;20238;-80
2023/07/07 01:24:46;;;;;;;3.53;2.93;;;19.20;63.20;18.40;96795.00;;;;4965688;28;20683;-80
2023/07/07 01:27:46;;;;;;;4.10;2.50;;;19.20;62.90;18.30;96794.00;;;;4982518;28;20607;-80
2023/07/07 01:30:45;;;;;;;3.20;2.90;;;19.20;62.90;18.30;96793.00;;;;4974459;28;20196;-80
2023/07/07 01:33:18;;;;;;;3.33;2.53;;;19.20;62.80;18.30;96796.00;;;;4977387;28;20223;-80
2023/07/07 01:35:45;;;;;;;2.80;2.60;;;19.20;63.10;18.30;96791.00;;;;4976122;28;20308;-80
2023/07/07 01:38:36;;;;;;;3.27;2.97;;;19.20;63.30;18.20;96789.00;;;;4961195;28;20218;-80
2023/07/07 01:41:20;;;;;;;2.60;2.40;;;19.10;63.30;18.20;96786.00;;;;4952275;29;20192;-80
2023/07/07 01:43:58;;;;;;;2.90;2.60;;;19.10;63.40;18.20;96791.00;;;;4971144;28;20207;-80
2023/07/07 01:46:31;;;;;;;3.10;2.80;;;19.10;63.40;18.10;96794.00;;;;4968621;28;20258;-80
2023/07/07 01:49:11;;;;;;;2.97;2.77;;;19.10;63.40;18.10;96791.00;;;;4975919;28;20230;-79
2023/07/07 01:51:56;;;;;;;3.83;2.60;;;19.00;63.50;18.10;96795.00;;;;4959566;28;20209;-80
2023/07/07 01:54:26;;;;;;;3.30;2.63;;;19.00;63.50;18.10;96795.00;;;;4967842;28;20228;-80
2023/07/07 01:56:57;;;;;;;3.20;2.90;;;19.00;63.80;18.10;96799.00;;;;4963760;28;20224;-79
2023/07/07 01:59:26;;;;;;;3.07;2.77;;;19.00;64.00;18.00;96799.00;;;;4969653;28;20279;-80
2023/07/07 02:01:56;;;;;;;3.03;2.73;;;18.90;64.10;18.00;96800.00;;;;4959146;28;20202;-79
2023/07/07 02:04:23;;;;;;;2.93;2.57;;;18.90;64.20;18.00;96800.00;;;;4961604;28;20202;-80
2023/07/07 02:06:51;;;;;;;3.80;3.13;;;18.90;64.30;18.00;96806.00;;;;4963557;28;20227;-80
2023/07/07 02:09:19;;;;;;;3.83;2.83;;;18.90;64.30;18.00;96804.00;;;;4966574;28;20315;-80
2023/07/07 02:11:48;;;;;;;3.03;2.80;;;18.90;65.10;18.00;96807.00;;;;4963307;28;20628;-80
2023/07/07 02:14:15;;;;;;;3.07;2.77;;;18.90;64.30;18.00;96808.00;;;;4965585;28;20314;-80
2023/07/07 02:16:42;;;;;;;2.90;2.60;;;18.90;64.30;17.90;96806.00;;;;4971463;28;20221;-79
2023/07/07 02:19:12;;;;;;;4.13;2.60;;;18.80;64.10;17.90;96811.00;;;;4968396;28;20211;-81
2023/07/07 02:21:39;;;;;;;3.00;2.70;;;18.80;64.10;17.90;96807.00;;;;4981953;28;20229;-80
2023/07/07 02:24:07;;;;;;;2.90;2.70;;;18.80;64.10;17.80;96806.00;;;;4967840;28;20290;-81
2023/07/07 02:26:34;;;;;;;2.67;2.47;;;18.80;64.30;17.80;96808.00;;;;4971479;28;20214;-80
2023/07/07 02:29:02;;;;;;;2.97;2.73;;;18.70;64.50;17.80;96811.00;;;;4977667;28;20200;-81
2023/07/07 02:31:31;;;;;;;4.40;2.80;;;18.70;65.30;17.70;96807.00;;;;4978130;28;20230;-79
2023/07/07 02:33:58;;;;;;;3.47;2.73;;;18.70;64.70;17.70;96805.00;;;;4971778;28;20255;-80
2023/07/07 02:36:27;;;;;;;2.53;2.33;;;18.70;65.00;17.70;96810.00;;;;4971690;28;20310;-80
2023/07/07 02:38:54;;;;;;;3.23;2.93;;;18.60;65.10;17.70;96811.00;;;;4962700;28;20203;-80
2023/07/07 02:41:22;;;;;;;3.40;2.80;;;18.60;65.20;17.70;96809.00;;;;4962982;28;20200;-80
2023/07/07 02:43:49;;;;;;;3.53;3.23;;;18.60;65.10;17.70;96812.00;;;;4972129;28;20736;-80
2023/07/07 02:46:17;;;;;;;4.43;3.27;;;18.60;65.10;17.70;96814.00;;;;4970458;28;20220;-80
2023/07/07 02:48:44;;;;;;;3.23;2.93;;;18.60;65.10;17.70;96806.00;;;;4973739;28;20608;-80
2023/07/07 02:51:12;;;;;;;3.13;2.83;;;18.60;65.20;17.70;96808.00;;;;4972743;28;20205;-80
2023/07/07 02:53:41;;;;;;;3.20;2.90;;;18.50;65.20;17.60;96813.00;;;;4981435;28;20330;-80
2023/07/07 02:56:08;;;;;;;3.20;2.90;;;18.50;65.40;17.60;96814.00;;;;4968003;28;20239;-80
2023/07/07 02:58:35;;;;;;;3.80;3.40;;;18.50;65.50;17.60;96810.00;;;;4961598;28;20200;-80
2023/07/07 03:01:11;;;;;;;3.30;3.00;;;18.50;65.70;17.60;96814.00;;;;4964763;28;20258;-81
2023/07/07 03:03:40;;;;;;;3.10;2.80;;;18.50;65.80;17.60;96811.00;;;;4980524;28;20210;-80
2023/07/07 03:06:11;;;;;;;3.43;3.13;;;18.50;65.90;17.60;96819.00;;;;4973743;28;20302;-80
2023/07/07 03:08:40;;;;;;;3.57;3.10;;;18.50;65.90;17.60;96819.00;;;;4981267;28;20654;-80
2023/07/07 03:11:12;;;;;;;3.73;3.43;;;18.50;65.80;17.60;96818.00;;;;4978329;28;20216;-80
2023/07/07 03:13:40;;;;;;;5.73;2.73;;;18.50;65.70;17.50;96816.00;;;;4972635;28;20223;-80
2023/07/07 03:16:10;;;;;;;3.23;2.93;;;18.40;65.60;17.50;96821.00;;;;4975738;28;20228;-80
2023/07/07 03:18:37;;;;;;;3.17;2.90;;;18.40;65.60;17.50;96818.00;;;;4966081;28;20287;-81
2023/07/07 03:21:04;;;;;;;4.57;3.00;;;18.40;65.50;17.50;96826.00;;;;4974242;28;20287;-80
2023/07/07 03:23:34;;;;;;;2.90;2.70;;;18.40;65.50;17.50;96824.00;;;;4973577;28;20291;-80
2023/07/07 03:26:09;;;;;;;3.30;3.00;;;18.40;65.70;17.40;96825.00;;;;4977266;28;20704;-79
2023/07/07 03:28:36;;;;;;;3.60;3.10;;;18.40;65.60;17.40;96825.00;;;;4960477;28;20202;-80
2023/07/07 03:31:12;;;;;;;3.20;2.90;;;18.30;65.60;17.40;96829.00;;;;4971498;28;20318;-80
2023/07/07 03:33:42;;;;;;;3.50;3.20;;;18.30;65.40;17.30;96822.00;;;;4970771;28;20315;-79
2023/07/07 03:36:10;;;;;;;2.83;2.63;;;18.30;65.50;17.30;96839.00;;;;4980822;28;20246;-80
2023/07/07 03:38:37;;;;;;;4.07;3.00;;;18.30;65.50;17.30;96830.00;;;;4969630;28;20230;-80
2023/07/07 03:41:05;;;;;;;3.67;3.13;;;18.30;65.60;17.30;96840.00;;;;4965573;28;20259;-80
2023/07/07 03:43:37;;;;;;;3.70;3.23;;;18.20;65.60;17.20;96835.00;;;;4972764;28;20267;-80
2023/07/07 03:46:04;;;;;;;5.63;3.37;;;18.20;65.60;17.20;96840.00;;;;4968125;28;20220;-80
2023/07/07 03:48:32;;;;;;;3.90;3.10;;;18.20;66.40;17.20;96842.00;;;;4967879;28;20203;-80
2023/07/07 03:51:03;;;;;;;3.33;3.03;;;18.20;65.80;17.20;96837.00;;;;4959086;28;20760;-79
2023/07/07 03:53:32;;;;;;;3.37;3.07;;;18.10;65.90;17.10;96843.00;;;;4967623;28;20215;-79
2023/07/07 03:56:00;;;;;;;3.03;2.73;;;18.10;66.00;17.10;96835.00;;;;4975155;28;20734;-80
2023/07/07 03:58:29;;;;;;;5.07;3.20;;;18.10;66.10;17.10;96839.00;;;;4962087;28;20218;-80
2023/07/07 04:01:01;;;;;;;3.57;3.13;;;18.10;66.10;17.10;96840.00;;;;4976433;28;20235;-80
2023/07/07 04:03:30;;;;;;;3.43;3.13;;;18.00;66.20;17.10;96848.00;;;;4979639;28;20203;-80
2023/07/07 04:05:59;;;;;;;3.67;3.30;;;18.00;66.40;17.10;96847.00;;;;4967301;28;20769;-80
2023/07/07 04:08:27;;;;;;;3.63;2.90;;;18.00;66.70;17.10;96845.00;;;;4974855;28;20204;-80
2023/07/07 04:11:03;;;;;;;4.20;3.77;;;18.00;66.90;17.10;96848.00;;;;4959176;28;20243;-81
2023/07/07 04:13:33;;;;;;;3.83;3.53;;;18.00;67.10;17.10;96847.00;;;;4972512;28;20199;-81
2023/07/07 04:16:08;;;;;;;3.83;3.53;;;17.90;67.20;17.10;96856.00;;;;4965295;28;20654;-81
2023/07/07 04:18:37;;;;;;;3.77;3.47;;;18.00;67.50;17.10;96853.00;;;;4965759;28;20203;-81
2023/07/07 04:21:08;;;;;;;4.77;3.20;;;18.00;67.60;17.10;96855.00;;;;4975057;28;20227;-81
2023/07/07 04:23:37;;;;;;;3.37;3.07;;;18.00;67.70;17.10;96849.00;;;;4976423;28;20562;-80
2023/07/07 04:26:06;;;;;;;3.60;3.20;;;18.00;67.80;17.10;96866.00;;;;4974427;28;20227;-80
2023/07/07 04:28:35;;;;;;;3.77;3.43;;;18.00;68.00;17.10;96859.00;;;;4971953;28;20293;-81
2023/07/07 04:31:06;;;;;;;3.60;3.30;;;18.00;68.20;17.20;96861.00;;;;4976406;28;20613;-81
2023/07/07 04:33:35;;;;;;;3.87;3.47;;;18.00;68.30;17.20;96864.00;;;;4981112;28;20215;-80
2023/07/07 04:36:07;;;;;;;3.87;3.13;;;18.00;68.40;17.20;96871.00;;;;4982539;28;20251;-80
2023/07/07 04:38:35;;;;;;;3.57;3.13;;;18.00;68.50;17.20;96872.00;;;;4968123;28;20224;-81
2023/07/07 04:41:09;;;;;;;3.87;3.57;;;18.00;68.60;17.20;96877.00;;;;4949337;29;20215;-81
2023/07/07 04:43:39;;;;;;;3.80;3.50;;;18.10;69.10;17.30;96879.00;;;;4979997;28;20269;-81
2023/07/07 04:46:11;;;;;;;3.87;3.50;;;18.10;69.30;17.30;96871.00;;;;4956613;28;20304;-81
2023/07/07 04:48:39;;;;;;;5.30;3.93;;;18.10;69.60;17.30;96876.00;;;;4959626;28;20204;-80
2023/07/07 04:51:10;;;;;;;4.40;3.60;;;18.10;69.70;17.30;96879.00;;;;4960424;28;20201;-80
2023/07/07 04:53:42;;;;;;;4.37;3.97;;;18.20;69.90;17.40;96881.00;;;;4966804;28;20198;-80
2023/07/07 04:56:11;;;;;;;4.23;3.80;;;18.20;69.90;17.40;96887.00;;;;4974815;28;20643;-81
2023/07/07 04:58:41;;;;;;;3.83;3.53;;;18.20;70.20;17.40;96890.00;;;;4974432;28;20584;-80
2023/07/07 05:01:15;;;;;;;4.47;3.60;;;18.20;71.30;17.50;96892.00;;;;4962294;28;20259;-81
2023/07/07 05:03:45;;;;;;;4.37;3.60;;;18.30;70.90;17.50;96892.00;;;;4964776;28;20200;-81
2023/07/07 05:06:13;;;;;;;4.37;3.97;;;18.30;71.00;17.60;96887.00;;;;4954892;28;20289;-81
2023/07/07 05:08:44;;;;;;;4.20;3.80;;;18.30;71.10;17.60;96892.00;;;;4965891;28;20286;-80
2023/07/07 05:11:13;;;;;;;7.43;3.97;;;18.40;71.20;17.70;96892.00;;;;4970061;28;20294;-81
2023/07/07 05:13:41;;;;;;;4.13;3.73;;;18.40;71.30;17.70;96905.00;;;;4971686;28;20300;-81
2023/07/07 05:16:13;;;;;;;4.00;3.60;;;18.50;71.50;17.80;96907.00;;;;4959886;28;20227;-80
2023/07/07 05:18:41;;;;;;;4.03;3.43;;;18.50;71.70;17.80;96905.00;;;;4974142;28;20266;-80
2023/07/07 05:21:11;;;;;;;4.07;3.57;;;18.50;71.70;17.80;96911.00;;;;4957386;28;20239;-81
2023/07/07 05:23:41;;;;;;;4.63;3.90;;;18.60;71.80;17.90;96915.00;;;;4964782;28;20211;-80
2023/07/07 05:26:10;;;;;;;3.70;3.40;;;18.60;72.60;18.00;96907.00;;;;4962124;28;20629;-80
2023/07/07 05:28:38;;;;;;;4.27;3.87;;;18.70;72.10;18.00;96923.00;;;;4955683;28;20308;-80
2023/07/07 05:31:12;;;;;;;3.93;3.63;;;18.70;72.30;18.10;96907.00;;;;4962803;28;20211;-83
2023/07/07 05:33:41;;;;;;;3.90;3.60;;;18.80;72.50;18.10;96916.00;;;;4967927;28;20203;-82
2023/07/07 05:36:09;;;;;;;4.17;3.87;;;18.80;72.70;18.20;96916.00;;;;4977616;28;20294;-82
2023/07/07 05:38:40;;;;;;;5.00;3.83;;;18.90;72.70;18.30;96920.00;;;;4961142;28;20199;-83
2023/07/07 05:41:07;;;;;;;4.27;3.53;;;18.90;72.80;18.30;96919.00;;;;4964912;28;20210;-79
2023/07/07 05:43:36;;;;;;;4.93;3.70;;;19.00;72.90;18.40;96922.00;;;;4953761;28;20208;-81
2023/07/07 05:46:07;;;;;;;4.03;3.50;;;19.10;73.00;18.50;96912.00;;;;4964250;28;20271;-80
2023/07/07 05:48:35;;;;;;;3.80;3.50;;;19.10;73.10;18.60;96923.00;;;;4963759;28;20214;-80
2023/07/07 05:51:07;;;;;;;4.13;3.83;;;19.20;73.10;18.60;96922.00;;;;4954250;28;20211;-81
2023/07/07 05:53:36;;;;;;;5.17;3.70;;;19.30;73.10;18.70;96927.00;;;;4972140;28;20204;-79
2023/07/07 05:56:08;;;;;;;5.10;3.73;;;19.30;72.90;18.80;96928.00;;;;4962502;28;20239;-80
2023/07/07 05:58:36;;;;;;;4.23;3.83;;;19.40;72.90;18.90;96931.00;;;;4963434;28;20203;-82
2023/07/07 06:01:04;;;;;;;3.57;3.27;;;19.50;73.00;19.00;96929.00;;;;4964973;28;20210;-79
2023/07/07 06:03:33;;;;;;;3.73;3.43;;;19.60;73.00;19.00;96936.00;;;;4962766;28;20197;-80
2023/07/07 06:06:00;;;;;;;4.27;3.87;;;19.60;73.00;19.10;96938.00;;;;4961487;28;20232;-80
2023/07/07 06:08:29;;;;;;;4.40;3.50;;;19.70;73.00;19.20;96936.00;;;;4968491;28;20581;-81
2023/07/07 06:10:57;;;;;;;3.90;3.50;;;19.70;72.90;19.30;96932.00;;;;4961801;28;20200;-80
2023/07/07 06:13:24;;;;;;;5.07;3.40;;;19.80;73.00;19.40;96935.00;;;;4961879;28;20276;-79
2023/07/07 06:15:53;;;;;;;5.33;3.77;;;19.90;73.00;19.40;96928.00;;;;4965984;28;20594;-79
2023/07/07 06:18:21;;;;;;;5.30;3.83;;;20.00;73.10;19.50;96937.00;;;;4973625;28;20205;-80
2023/07/07 06:20:49;;;;;;;4.00;3.60;;;20.10;73.00;19.60;96939.00;;;;4971696;28;20313;-80
2023/07/07 06:23:16;;;;;;;4.03;3.53;;;20.20;73.00;19.70;96937.00;;;;4962634;28;20664;-80
2023/07/07 06:25:47;;;;;;;4.20;3.80;;;20.20;72.90;19.70;96935.00;;;;4975203;28;20294;-79
2023/07/07 06:28:15;;;;;;;4.60;3.60;;;20.30;72.90;19.80;96932.00;;;;4973601;28;20194;-81
2023/07/07 06:30:42;;;;;;;4.30;3.50;;;20.40;72.80;19.90;96930.00;;;;4945349;28;20624;-79
2023/07/07 06:33:10;;;;;;;4.27;3.60;;;20.40;72.30;20.00;96930.00;;;;4971477;28;20209;-79
2023/07/07 06:35:38;;;;;;;4.90;3.57;;;20.50;71.90;20.00;96932.00;;;;4969617;28;20295;-79
2023/07/07 06:38:05;;;;;;;5.83;4.13;;;20.60;71.90;20.10;96938.00;;;;4979657;28;20210;-79
2023/07/07 06:40:34;;;;;;;5.33;3.77;;;20.60;71.90;20.20;96934.00;;;;4940182;28;20195;-80
2023/07/07 06:43:03;;;;;;;4.20;3.77;;;20.70;71.90;20.30;96934.00;;;;4950751;28;20214;-80
2023/07/07 06:45:34;;;;;;;4.03;3.63;;;20.80;71.80;20.40;96931.00;;;;4983102;28;20310;-80
2023/07/07 06:48:02;;;;;;;3.97;3.50;;;20.90;71.50;20.50;96936.00;;;;4983106;28;20605;-80
2023/07/07 06:50:32;;;;;;;4.17;3.70;;;21.00;71.50;20.60;96935.00;;;;4962924;28;20740;-79
2023/07/07 06:52:59;;;;;;;3.80;3.40;;;21.10;71.50;20.70;96935.00;;;;4965710;28;20801;-79
2023/07/07 06:55:27;;;;;;;4.63;3.17;;;21.20;71.30;20.80;96942.00;;;;4953126;28;20258;-80
2023/07/07 06:57:55;;;;;;;2.87;2.67;;;21.30;71.20;20.90;96941.00;;;;4964933;28;20199;-80
2023/07/07 07:00:25;;;;;;;3.03;2.73;;;21.30;71.10;21.00;96948.00;;;;4970541;28;20200;-81
2023/07/07 07:02:53;;;;;;;3.30;3.00;;;21.50;70.90;21.10;96947.00;;;;4974530;28;20218;-80
2023/07/07 07:05:21;;;;;;;3.10;2.80;;;21.60;70.90;21.30;96949.00;;;;4960530;28;20291;-80
2023/07/07 07:07:49;;;;;;;3.53;2.87;;;21.70;71.00;21.40;96953.00;;;;4959099;28;21550;-81
2023/07/07 07:10:17;;;;;;;3.70;2.80;;;21.80;70.70;21.60;96957.00;;;;4968762;28;20287;-81
2023/07/07 07:12:44;;;;;;;3.10;2.73;;;21.90;70.50;21.70;96955.00;;;;4973604;28;20199;-81
2023/07/07 07:15:12;;;;;;;2.63;2.43;;;22.10;70.80;21.90;96956.00;;;;4969859;28;20216;-81
2023/07/07 07:17:41;;;;;;;3.80;2.70;;;22.30;70.90;22.10;96957.00;;;;4959694;28;20204;-81
2023/07/07 07:20:12;;;;;;;2.73;2.53;;;22.40;70.70;22.30;96957.00;;;;4962177;28;20206;-82
2023/07/07 07:22:39;;;;;;;2.80;2.50;;;22.60;70.60;22.50;96961.00;;;;4967894;28;20210;-79
2023/07/07 07:25:08;;;;;;;3.63;2.43;;;22.80;70.60;22.70;96962.00;;;;4970485;28;20210;-80
2023/07/07 07:27:37;;;;;;;3.07;2.77;;;22.90;70.00;22.90;96965.00;;;;4968399;28;20235;-79
2023/07/07 07:30:07;;;;;;;3.90;3.00;;;23.10;69.90;23.00;96963.00;;;;4955273;29;20213;-79
2023/07/07 07:32:34;;;;;;;2.73;2.50;;;23.30;69.40;23.20;96967.00;;;;4967985;28;20202;-80
2023/07/07 07:35:03;;;;;;;4.60;2.57;;;23.50;69.40;23.40;96966.00;;;;4976802;28;20246;-80
2023/07/07 07:37:31;;;;;;;3.63;2.57;;;23.60;69.40;23.60;96968.00;;;;4976148;28;20576;-80
2023/07/07 07:39:58;;;;;;;2.53;2.30;;;23.80;69.20;23.80;96970.00;;;;4952567;28;20271;-79
2023/07/07 07:42:25;;;;;;;3.13;2.80;;;24.00;68.70;23.90;96970.00;;;;4969011;28;20287;-81
2023/07/07 07:44:53;;;;;;;2.87;2.53;;;24.20;68.00;24.10;96971.00;;;;4967661;28;20289;-79
2023/07/07 07:47:20;;;;;;;2.60;2.37;;;24.30;67.60;24.30;96973.00;;;;4968486;28;20567;-80
2023/07/07 07:49:48;;;;;;;2.80;2.60;;;24.50;67.40;24.50;96982.00;;;;4974040;28;20206;-79
2023/07/07 07:52:18;;;;;;;3.10;2.80;;;24.70;66.70;24.60;96972.00;;;;4969037;28;20196;-80
2023/07/07 07:54:46;;;;;;;2.80;2.50;;;24.90;66.50;24.80;96981.00;;;;4970696;28;20270;-81
2023/07/07 07:57:16;;;;;;;3.00;2.70;;;25.00;65.90;25.00;96981.00;;;;4938559;29;20223;-80
2023/07/07 07:59:43;;;;;;;3.63;2.50;;;25.20;64.90;25.20;96978.00;;;;4963677;28;20264;-80
2023/07/07 08:02:12;;;;;;;3.33;2.47;;;25.40;64.50;25.40;96982.00;;;;4972088;28;20211;-81
2023/07/07 08:04:40;;;;;;;2.40;2.20;;;25.60;64.00;25.50;96987.00;;;;4956799;28;20200;-82
2023/07/07 08:07:08;;;;;;;3.10;2.80;;;25.80;63.90;25.70;96988.00;;;;4964512;28;20220;-81
2023/07/07 08:09:36;;;;;;;3.07;2.67;;;25.90;63.10;25.90;96990.00;;;;4955288;28;20270;-81
2023/07/07 08:12:05;;;;;;;3.60;3.30;;;26.10;62.40;26.10;96989.00;;;;4943625;28;20578;-81
2023/07/07 08:14:34;;;;;;;3.80;3.07;;;26.30;62.60;26.30;96996.00;;;;4974346;28;20335;-80
2023/07/07 08:17:06;;;;;;;3.37;2.47;;;26.50;62.00;26.50;96997.00;;;;4960492;28;20238;-79
2023/07/07 08:19:36;;;;;;;3.45;2.67;;;26.60;60.90;26.70;96998.00;;;;4974581;28;20294;-79
2023/07/07 08:22:05;;;;;;;2.63;2.45;;;26.80;60.20;26.90;96992.00;;;;4970747;28;20283;-81
2023/07/07 08:24:41;;;;;;;3.55;2.83;;;27.00;60.20;27.10;96993.00;;;;4964338;28;20206;-80
2023/07/07 08:27:09;;;;;;;3.80;2.90;;;27.20;59.40;27.20;96997.00;;;;4962874;28;20231;-79
2023/07/07 08:29:36;;;;;;;3.00;2.50;;;27.40;59.60;27.40;96997.00;;;;4973042;28;20206;-80
2023/07/07 08:32:04;;;;;;;3.28;2.60;;;27.50;59.20;27.60;97003.00;;;;4973526;28;20203;-80
2023/07/07 08:34:32;;;;;;;2.50;2.30;;;27.70;59.00;27.70;96992.00;;;;4963389;28;20204;-80
2023/07/07 08:37:00;;;;;;;2.78;2.58;;;27.80;58.60;27.90;97003.00;;;;4969937;28;20224;-82
2023/07/07 08:39:30;;;;;;;2.65;2.45;;;28.00;58.10;28.00;96992.00;;;;4966588;28;20199;-80
2023/07/07 08:42:04;;;;;;;3.00;2.35;;;28.20;57.80;28.20;97008.00;;;;4967938;28;20287;-82
2023/07/07 08:44:35;;;;;;;2.90;2.58;;;28.30;56.80;28.40;97002.00;;;;4968060;28;20222;-81
2023/07/07 08:47:25;;;;;;;2.67;2.30;;;28.40;56.40;28.50;97011.00;;;;4964453;28;20399;-81
2023/07/07 08:50:05;;;;;;;2.78;2.58;;;28.60;54.80;28.70;97002.00;;;;4959453;28;20554;-80
2023/07/07 08:52:47;;;;;;;2.65;2.45;;;28.80;55.10;28.90;97002.00;;;;4965128;28;20197;-80
2023/07/07 08:55:44;;;;;;;6.40;2.53;;;29.00;55.00;29.10;97008.00;;;;4969336;28;20220;-81
2023/07/07 08:58:24;;;;;;;3.10;2.42;;;29.20;53.40;29.20;97001.00;;;;4970679;28;20211;-80
2023/07/07 09:01:07;;;;;;;2.50;2.30;;;29.30;53.10;29.40;97001.00;;;;4974793;28;20834;-80
2023/07/07 09:03:53;;;;;;;2.55;2.35;;;29.50;52.10;29.50;96998.00;;;;4968545;28;20291;-78
2023/07/07 09:06:40;;;;;;;1.90;1.80;;;29.60;50.60;29.70;96996.00;;;;4974603;28;20314;-80
2023/07/07 09:09:20;;;;;;;2.35;2.05;;;29.80;50.10;29.80;96993.00;;;;4982414;28;20657;-80
2023/07/07 09:12:07;;;;;;;2.30;2.10;;;29.90;50.20;30.00;97003.00;;;;4966003;28;20199;-78
2023/07/07 09:14:40;;;;;;;2.30;2.08;;;30.10;47.70;30.20;97007.00;;;;4965450;28;20200;-79
2023/07/07 09:17:19;;;;;;;2.70;2.50;;;30.20;47.90;30.30;97001.00;;;;4959397;28;20232;-79
2023/07/07 09:19:49;;;;;;;2.55;2.10;;;30.40;46.90;30.50;97010.00;;;;4964369;28;20196;-80
2023/07/07 09:22:26;;;;;;;2.72;2.35;;;30.50;48.00;30.60;97013.00;;;;4960142;28;20196;-80
2023/07/07 09:25:02;;;;;;;4.60;2.20;;;30.70;47.30;30.80;96999.00;;;;4974228;28;20209;-80
2023/07/07 09:27:40;;;;;;;3.03;2.83;;;30.80;47.30;30.90;97007.00;;;;4972859;28;20229;-80
2023/07/07 09:30:21;;;;;;;2.38;2.17;;;31.00;47.70;31.10;96999.00;;;;4969796;28;20195;-80
2023/07/07 09:32:49;;;;;;;2.28;1.85;;;31.10;46.00;31.20;97002.00;;;;4963356;28;20203;-79
2023/07/07 09:35:21;;;;;;;2.58;2.03;;;31.30;47.30;31.30;97003.00;;;;4960788;28;20203;-79
2023/07/07 09:38:03;;;;;;;2.50;2.30;;;31.40;47.10;31.50;97011.00;;;;4973530;28;20203;-80
2023/07/07 09:40:44;;;;;;;2.08;1.85;;;31.60;45.90;31.60;97010.00;;;;4949784;28;20214;-80
2023/07/07 09:43:26;;;;;;;2.33;2.13;;;31.70;45.60;31.80;97004.00;;;;4971634;28;20207;-80
2023/07/07 09:46:13;;;;;;;2.25;2.10;;;31.90;45.00;32.00;97005.00;;;;4955442;28;20227;-79
2023/07/07 09:48:53;;;;;;;2.20;2.00;;;32.10;44.30;32.10;97006.00;;;;4954626;28;20203;-79
2023/07/07 09:51:43;;;;;;;2.30;1.55;;;32.30;44.70;32.30;97002.00;;;;4968712;28;20207;-80
2023/07/07 09:54:14;;;;;;;2.25;2.05;;;32.60;43.70;32.50;97003.00;;;;4953837;28;20295;-80
2023/07/07 09:56:52;;;;;;;1.85;1.75;;;32.80;44.00;32.70;97009.00;;;;4970607;28;20314;-79
2023/07/07 09:59:27;;;;;;;2.30;2.10;;;33.00;42.20;32.90;97008.00;;;;4968775;28;20203;-81
2023/07/07 10:01:57;;;;;;;1.95;1.85;;;33.30;40.80;33.00;97003.00;;;;4968366;28;20203;-79
2023/07/07 10:04:28;;;;;;;2.20;2.05;;;33.60;41.00;33.20;97003.00;;;;4969749;28;20283;-80
2023/07/07 10:07:00;;;;;;;2.78;1.85;;;33.80;41.90;33.30;96999.00;;;;4962041;28;20228;-81
2023/07/07 10:09:28;;;;;;;2.08;1.85;;;34.00;41.20;33.50;97006.00;;;;4970461;28;20277;-80
2023/07/07 10:11:57;;;;;;;2.10;1.90;;;34.30;41.50;33.60;97003.00;;;;4969269;28;20599;-81
2023/07/07 10:14:30;;;;;;;2.40;2.20;;;34.50;41.20;33.80;97010.00;;;;4974108;28;20199;-80
2023/07/07 10:17:10;;;;;;;1.90;1.80;;;34.80;40.00;33.90;97005.00;;;;4971968;28;20233;-79
2023/07/07 10:19:43;;;;;;;2.53;2.10;;;35.10;39.60;34.10;97003.00;;;;4956460;28;20206;-79
2023/07/07 10:22:13;;;;;;;2.60;2.40;;;35.30;38.50;34.20;97004.00;;;;4973246;28;20642;-80
2023/07/07 10:24:41;;;;;;;2.05;1.88;;;35.50;39.20;34.40;97012.00;;;;4969956;28;20279;-81
2023/07/07 10:27:14;;;;;;;2.35;2.15;;;35.70;39.80;34.50;96993.00;;;;4971373;28;20235;-78
2023/07/07 10:29:44;;;;;;;1.95;1.80;;;35.80;38.20;34.70;97003.00;;;;4969870;28;20195;-80
2023/07/07 10:32:18;;;;;;;2.80;1.98;;;36.00;38.80;34.80;97008.00;;;;4970355;28;20199;-79
2023/07/07 10:34:49;;;;;;;2.15;2.05;;;36.10;37.60;34.90;97013.00;;;;4971799;28;20202;-79
2023/07/07 10:37:22;;;;;;;2.00;1.80;;;36.20;37.80;35.00;97007.00;;;;4974769;28;20692;-79
2023/07/07 10:39:56;;;;;;;2.42;2.17;;;36.30;36.50;35.10;97010.00;;;;4973414;28;20720;-79
2023/07/07 10:42:24;;;;;;;10.02;2.45;;;36.30;36.10;35.10;97005.00;;;;4972347;28;20274;-80
2023/07/07 10:44:52;;;;;;;2.38;2.17;;;36.30;36.50;35.20;97008.00;;;;4974532;28;20199;-77
2023/07/07 10:47:24;;;;;;;2.28;2.17;;;36.40;37.00;35.20;97003.00;;;;4971728;28;20270;-78
2023/07/07 10:49:51;;;;;;;2.42;2.22;;;36.30;35.50;35.20;97004.00;;;;4954710;28;20210;-78
2023/07/07 10:52:47;;;;;;;3.13;1.83;;;36.30;36.50;35.30;97002.00;;;;4968402;28;20291;-79
2023/07/07 10:55:25;;;;;;;2.28;2.08;;;36.20;34.70;35.20;96991.00;;;;4963567;28;20684;-79
2023/07/07 10:58:13;;;;;;;2.40;2.20;;;36.20;34.90;35.20;97000.00;;;;4958656;28;20296;-79
2023/07/07 11:01:02;;;;;;;2.15;1.95;;;36.10;35.00;35.20;97000.00;;;;4964351;28;20275;-79
2023/07/07 11:04:05;;;;;;;2.25;2.05;;;36.00;34.50;35.00;96993.00;;;;4975060;28;20279;-79
2023/07/07 11:06:43;;;;;;;2.30;2.10;;;35.90;33.60;34.90;96987.00;;;;4969343;28;20251;-80
2023/07/07 11:09:40;;;;;;;2.25;2.05;;;35.70;35.10;34.70;96986.00;;;;4951796;28;20297;-77
2023/07/07 11:12:25;;;;;;;2.50;2.30;;;35.50;34.10;34.50;96983.00;;;;4966938;28;20203;-79
2023/07/07 11:15:05;;;;;;;2.35;2.15;;;35.30;34.10;34.30;96986.00;;;;4978780;28;20195;-80